createdAt,value
2018-06-19T00:01:03.231Z,23.62
2018-06-19T00:03:29.876Z,23.59
2018-06-19T00:05:56.521Z,23.63
2018-06-19T00:08:23.158Z,23.59
2018-06-19T00:10:49.791Z,23.56
2018-06-19T00:13:16.486Z,23.56
2018-06-19T00:15:43.115Z,23.55
2018-06-19T00:18:09.753Z,23.57
2018-06-19T00:20:36.390Z,23.54
2018-06-19T00:23:03.053Z,23.58
2018-06-19T00:25:29.697Z,23.52
2018-06-19T00:27:56.373Z,23.52
2018-06-19T00:30:23.050Z,23.51
2018-06-19T00:32:49.690Z,23.47
2018-06-19T00:35:16.347Z,23.48
2018-06-19T00:37:42.950Z,23.49
2018-06-19T00:40:09.644Z,23.48
2018-06-19T00:42:36.279Z,23.47
2018-06-19T00:45:02.927Z,23.45
2018-06-19T00:47:29.573Z,23.45
2018-06-19T00:49:56.261Z,23.46
2018-06-19T00:52:22.904Z,23.47
2018-06-19T00:54:49.545Z,23.45
2018-06-19T00:57:16.259Z,23.41
2018-06-19T00:59:42.923Z,23.46
2018-06-19T01:02:09.600Z,23.41
2018-06-19T01:04:36.234Z,23.42
2018-06-19T01:07:02.874Z,23.43
2018-06-19T01:09:29.544Z,23.43
2018-06-19T01:11:56.194Z,23.42
2018-06-19T01:14:22.829Z,23.43
2018-06-19T01:16:49.500Z,23.41
2018-06-19T01:19:16.191Z,23.38
2018-06-19T01:21:42.831Z,23.42
2018-06-19T01:24:09.471Z,23.37
2018-06-19T01:26:36.115Z,23.36
2018-06-19T01:29:02.805Z,23.41
2018-06-19T01:31:30.759Z,23.38
2018-06-19T01:33:56.077Z,23.35
2018-06-19T01:36:22.763Z,23.37
2018-06-19T01:38:49.397Z,23.35
2018-06-19T01:41:16.041Z,23.33
2018-06-19T01:43:42.687Z,23.38
2018-06-19T01:46:09.364Z,23.34
2018-06-19T01:48:36.014Z,23.37
2018-06-19T01:51:02.691Z,23.33
2018-06-19T01:53:29.322Z,23.30
2018-06-19T01:55:56.018Z,23.29
2018-06-19T01:58:22.652Z,23.28
2018-06-19T02:00:49.289Z,23.31
2018-06-19T02:03:15.939Z,23.28
2018-06-19T02:05:42.617Z,23.30
2018-06-19T02:08:09.251Z,23.23
2018-06-19T02:10:35.897Z,23.30
2018-06-19T02:13:02.614Z,23.28
2018-06-19T02:15:29.267Z,23.26
2018-06-19T02:17:55.906Z,23.28
2018-06-19T02:20:22.594Z,23.27
2018-06-19T02:22:49.235Z,23.28
2018-06-19T02:25:15.934Z,23.26
2018-06-19T02:27:42.571Z,23.27
2018-06-19T02:30:09.197Z,23.22
2018-06-19T02:32:35.881Z,23.26
2018-06-19T02:35:02.595Z,23.26
2018-06-19T02:37:29.266Z,23.21
2018-06-19T02:39:55.893Z,23.20
2018-06-19T02:42:22.610Z,23.23
2018-06-19T02:44:49.288Z,23.23
2018-06-19T02:47:15.980Z,23.23
2018-06-19T02:49:42.605Z,23.26
2018-06-19T02:52:09.332Z,23.16
2018-06-19T02:54:37.095Z,23.18
2018-06-19T02:57:03.776Z,23.18
2018-06-19T02:59:30.419Z,23.17
2018-06-19T03:01:57.109Z,23.18
2018-06-19T03:04:23.746Z,23.16
2018-06-19T03:06:50.389Z,23.12
2018-06-19T03:09:17.033Z,23.16
2018-06-19T03:11:43.675Z,23.18
2018-06-19T03:14:10.345Z,23.16
2018-06-19T03:16:36.982Z,23.21
2018-06-19T03:19:03.657Z,23.13
2018-06-19T03:21:30.262Z,23.03
2018-06-19T03:23:56.909Z,22.98
2018-06-19T03:26:23.549Z,23.01
2018-06-19T03:28:50.189Z,22.96
2018-06-19T03:31:16.831Z,22.93
2018-06-19T03:33:43.469Z,22.87
2018-06-19T03:36:10.183Z,22.82
2018-06-19T03:38:36.785Z,22.94
2018-06-19T03:41:03.477Z,22.95
2018-06-19T03:43:30.108Z,22.93
2018-06-19T03:45:56.748Z,22.98
2018-06-19T03:48:23.396Z,22.98
2018-06-19T03:50:50.041Z,22.97
2018-06-19T03:53:16.733Z,23.07
2018-06-19T03:55:43.377Z,23.04
2018-06-19T03:58:10.014Z,23.07
2018-06-19T04:00:36.696Z,23.22
2018-06-19T04:03:03.385Z,23.15
2018-06-19T04:05:30.030Z,23.30
2018-06-19T04:07:56.661Z,23.18
2018-06-19T04:10:23.376Z,23.06
2018-06-19T04:12:49.949Z,23.21
2018-06-19T04:15:16.590Z,23.19
2018-06-19T04:17:43.228Z,23.26
2018-06-19T04:20:09.915Z,23.28
2018-06-19T04:22:36.552Z,23.28
2018-06-19T04:25:03.189Z,23.30
2018-06-19T04:27:29.875Z,23.27
2018-06-19T04:29:56.548Z,23.31
2018-06-19T04:32:23.178Z,23.29
2018-06-19T04:34:49.822Z,23.29
2018-06-19T04:37:16.509Z,23.36
2018-06-19T04:39:43.152Z,23.33
2018-06-19T04:42:09.798Z,23.35
2018-06-19T04:44:36.441Z,23.44
2018-06-19T04:47:03.123Z,23.49
2018-06-19T04:49:29.780Z,23.44
2018-06-19T04:51:56.462Z,23.41
2018-06-19T04:54:23.097Z,23.38
2018-06-19T04:56:49.803Z,23.43
2018-06-19T04:59:16.414Z,23.47
2018-06-19T05:01:43.059Z,23.51
2018-06-19T05:04:09.747Z,23.62
2018-06-19T05:06:36.387Z,23.54
2018-06-19T05:09:03.073Z,23.60
2018-06-19T05:11:29.761Z,23.60
2018-06-19T05:13:56.413Z,23.64
2018-06-19T05:16:23.094Z,23.67
2018-06-19T05:18:49.773Z,23.63
2018-06-19T05:21:16.414Z,23.71
2018-06-19T05:23:43.093Z,23.75
2018-06-19T05:26:09.730Z,23.74
2018-06-19T05:28:36.409Z,23.71
2018-06-19T05:31:03.117Z,23.70
2018-06-19T05:33:29.828Z,23.75
2018-06-19T05:35:56.547Z,23.77
2018-06-19T05:38:23.196Z,23.88
2018-06-19T05:40:49.944Z,23.82
2018-06-19T05:43:16.628Z,23.82
2018-06-19T05:45:43.272Z,23.91
2018-06-19T05:48:09.916Z,23.98
2018-06-19T05:50:36.553Z,24.07
2018-06-19T05:53:03.193Z,24.06
2018-06-19T05:55:29.986Z,24.09
2018-06-19T05:57:56.603Z,24.15
2018-06-19T06:00:23.241Z,24.22
2018-06-19T06:02:49.932Z,24.28
2018-06-19T06:05:16.688Z,24.11
2018-06-19T06:07:43.324Z,24.12
2018-06-19T06:10:09.971Z,24.06
2018-06-19T06:12:36.714Z,24.25
2018-06-19T06:15:03.316Z,24.31
2018-06-19T06:17:30.001Z,24.43
2018-06-19T06:19:56.645Z,24.49
2018-06-19T06:22:23.362Z,24.44
2018-06-19T06:24:50.034Z,24.50
2018-06-19T06:27:16.714Z,24.64
2018-06-19T06:29:43.355Z,24.69
2018-06-19T06:32:09.969Z,24.75
2018-06-19T06:34:36.647Z,24.77
2018-06-19T06:37:03.358Z,24.96
2018-06-19T06:39:29.915Z,25.02
2018-06-19T06:41:56.689Z,25.08
2018-06-19T06:44:23.407Z,25.10
2018-06-19T06:46:50.059Z,25.25
2018-06-19T06:49:16.706Z,25.18
2018-06-19T06:51:43.356Z,25.15
2018-06-19T06:54:09.992Z,25.09
2018-06-19T06:56:36.637Z,25.16
2018-06-19T06:59:03.294Z,25.18
2018-06-19T07:01:30.010Z,25.22
2018-06-19T07:03:56.734Z,25.22
2018-06-19T07:06:23.342Z,25.21
2018-06-19T07:08:49.981Z,25.17
2018-06-19T07:11:16.737Z,25.21
2018-06-19T07:13:43.473Z,25.26
2018-06-19T07:16:10.338Z,25.13
2018-06-19T07:18:36.947Z,25.20
2018-06-19T07:21:03.636Z,25.29
2018-06-19T07:23:30.315Z,25.28
2018-06-19T07:25:57.091Z,25.29
2018-06-19T07:28:23.642Z,25.22
2018-06-19T07:30:50.399Z,25.24
2018-06-19T07:33:19.053Z,25.19
2018-06-19T07:35:45.692Z,25.28
2018-06-19T07:38:12.604Z,25.35
2018-06-19T07:40:39.030Z,25.43
2018-06-19T07:43:05.770Z,25.48
2018-06-19T07:45:32.467Z,25.42
2018-06-19T07:47:59.143Z,25.57
2018-06-19T07:50:25.784Z,25.47
2018-06-19T07:52:52.550Z,25.47
2018-06-19T07:55:19.196Z,25.50
2018-06-19T07:57:45.901Z,25.61
2018-06-19T08:00:12.572Z,25.49
2018-06-19T08:02:39.280Z,25.62
2018-06-19T08:05:05.935Z,25.60
2018-06-19T08:07:33.723Z,25.61
2018-06-19T08:10:00.479Z,25.70
2018-06-19T08:12:27.085Z,25.74
2018-06-19T08:14:53.733Z,25.64
2018-06-19T08:17:20.411Z,25.62
2018-06-19T08:19:47.039Z,25.66
2018-06-19T08:22:13.769Z,25.78
2018-06-19T08:24:40.404Z,25.76
2018-06-19T08:27:07.040Z,25.54
2018-06-19T08:29:33.726Z,25.59
2018-06-19T08:32:00.367Z,25.52
2018-06-19T08:34:27.087Z,25.41
2018-06-19T08:36:53.777Z,25.73
2018-06-19T08:39:20.457Z,25.63
2018-06-19T08:44:13.730Z,25.59
2018-06-19T08:46:40.374Z,25.43
2018-06-19T08:49:07.065Z,25.39
2018-06-19T08:51:33.748Z,25.47
2018-06-19T08:54:00.438Z,25.52
2018-06-19T08:56:27.090Z,25.69
2018-06-19T08:58:53.727Z,25.71
2018-06-19T09:01:20.455Z,25.79
2018-06-19T09:03:47.083Z,25.74
2018-06-19T09:06:13.770Z,25.72
2018-06-19T09:08:40.577Z,25.62
2018-06-19T09:11:07.195Z,25.55
2018-06-19T09:13:33.936Z,25.65
2018-06-19T09:16:00.598Z,25.67
2018-06-19T09:18:27.234Z,25.75
2018-06-19T09:20:53.944Z,25.75
2018-06-19T09:23:20.629Z,25.61
2018-06-19T09:25:47.295Z,25.64
2018-06-19T09:28:13.977Z,25.71
2018-06-19T09:30:40.621Z,25.64
2018-06-19T09:33:07.310Z,25.59
2018-06-19T09:35:33.955Z,25.48
2018-06-19T09:38:00.654Z,25.51
2018-06-19T09:40:27.315Z,25.48
2018-06-19T09:42:53.982Z,25.52
2018-06-19T09:45:20.641Z,25.49
2018-06-19T09:47:47.288Z,25.21
2018-06-19T09:50:13.944Z,25.22
2018-06-19T09:52:40.588Z,25.22
2018-06-19T09:55:07.268Z,25.28
2018-06-19T09:57:34.023Z,25.47
2018-06-19T10:00:00.719Z,25.54
2018-06-19T10:02:27.364Z,25.52
2018-06-19T10:04:54.001Z,25.65
2018-06-19T10:07:20.658Z,25.57
2018-06-19T10:09:47.314Z,25.66
2018-06-19T10:12:14.181Z,25.65
2018-06-19T10:14:40.755Z,25.71
2018-06-19T10:17:07.416Z,25.58
2018-06-19T10:19:34.143Z,25.59
2018-06-19T10:22:01.147Z,25.61
2018-06-19T10:24:27.787Z,25.65
2018-06-19T10:26:54.421Z,25.70
2018-06-19T10:29:21.125Z,25.55
2018-06-19T10:31:47.773Z,25.51
2018-06-19T10:34:14.452Z,25.55
2018-06-19T10:36:41.096Z,25.55
2018-06-19T10:39:07.825Z,25.56
2018-06-19T10:41:34.490Z,25.40
2018-06-19T10:44:01.179Z,25.52
2018-06-19T10:46:27.823Z,25.52
2018-06-19T10:48:54.503Z,25.61
2018-06-19T10:51:21.136Z,25.58
2018-06-19T10:53:47.827Z,25.65
2018-06-19T10:56:14.505Z,25.58
2018-06-19T10:58:41.124Z,25.53
2018-06-19T11:01:07.772Z,25.47
2018-06-19T11:03:34.419Z,25.59
2018-06-19T11:06:01.065Z,25.22
2018-06-19T11:08:27.828Z,24.87
2018-06-19T11:10:54.507Z,25.07
2018-06-19T11:13:21.139Z,25.18
2018-06-19T11:15:47.834Z,25.37
2018-06-19T11:18:14.505Z,25.59
2018-06-19T11:20:41.317Z,25.68
2018-06-19T11:23:08.021Z,25.80
2018-06-19T11:25:34.725Z,25.91
2018-06-19T11:28:01.311Z,25.66
2018-06-19T11:30:28.071Z,25.47
2018-06-19T11:32:54.720Z,25.39
2018-06-19T11:35:21.438Z,25.37
2018-06-19T11:37:48.130Z,25.30
2018-06-19T11:40:14.943Z,25.43
2018-06-19T11:42:42.540Z,25.29
2018-06-19T11:45:09.166Z,25.45
2018-06-19T11:47:35.862Z,25.53
2018-06-19T11:50:02.627Z,25.44
2018-06-19T11:52:29.232Z,25.47
2018-06-19T11:54:56.784Z,25.67
2018-06-19T11:57:23.607Z,25.63
2018-06-19T11:59:50.294Z,25.63
2018-06-19T12:02:16.963Z,25.61
2018-06-19T12:04:43.733Z,25.40
2018-06-19T12:07:10.346Z,25.41
2018-06-19T12:09:37.089Z,25.46
2018-06-19T12:12:03.771Z,25.53
2018-06-19T12:14:30.614Z,25.70
2018-06-19T12:16:57.411Z,25.66
2018-06-19T12:19:24.115Z,25.73
2018-06-19T12:21:50.767Z,25.86
2018-06-19T12:24:17.415Z,25.72
2018-06-19T12:26:44.139Z,25.76
2018-06-19T12:29:11.157Z,25.38
2018-06-19T12:31:37.826Z,25.67
2018-06-19T12:34:04.475Z,25.60
2018-06-19T12:36:31.233Z,25.54
2018-06-19T12:38:57.759Z,25.43
2018-06-19T12:41:24.402Z,25.50
2018-06-19T12:43:51.045Z,25.37
2018-06-19T12:46:17.701Z,25.39
2018-06-19T12:48:44.391Z,25.46
2018-06-19T12:51:13.580Z,25.43
2018-06-19T12:53:40.237Z,25.31
2018-06-19T12:56:06.872Z,25.44
2018-06-19T12:58:33.596Z,25.50
2018-06-19T13:01:00.242Z,25.33
2018-06-19T13:03:26.889Z,25.47
2018-06-19T13:05:53.552Z,25.60
2018-06-19T13:08:20.193Z,25.68
2018-06-19T13:10:46.850Z,25.94
2018-06-19T13:13:18.014Z,25.85
2018-06-19T13:15:44.761Z,25.70
2018-06-19T13:18:11.411Z,25.62
2018-06-19T13:20:38.075Z,25.48
2018-06-19T13:23:04.713Z,25.61
2018-06-19T13:25:31.504Z,25.55
2018-06-19T13:27:58.186Z,25.75
2018-06-19T13:30:24.866Z,25.59
2018-06-19T13:32:51.556Z,25.81
2018-06-19T13:35:18.199Z,25.73
2018-06-19T13:37:44.844Z,25.75
2018-06-19T13:40:11.571Z,25.51
2018-06-19T13:42:38.234Z,25.54
2018-06-19T13:45:04.909Z,25.54
2018-06-19T13:47:31.575Z,25.42
2018-06-19T13:49:58.246Z,25.46
2018-06-19T13:52:24.919Z,25.36
2018-06-19T13:54:51.539Z,25.40
2018-06-19T13:57:18.460Z,25.45
2018-06-19T13:59:45.545Z,25.52
2018-06-19T14:02:12.134Z,25.63
2018-06-19T14:04:38.778Z,25.68
2018-06-19T14:07:05.464Z,25.78
2018-06-19T14:09:32.080Z,25.81
2018-06-19T14:11:58.743Z,25.86
2018-06-19T14:14:25.392Z,25.51
2018-06-19T14:16:52.041Z,25.37
2018-06-19T14:19:18.766Z,25.23
2018-06-19T14:21:45.404Z,25.22
2018-06-19T14:24:12.051Z,25.32
2018-06-19T14:26:38.736Z,25.31
2018-06-19T14:29:05.338Z,25.37
2018-06-19T14:31:32.013Z,25.38
2018-06-19T14:33:58.648Z,25.59
2018-06-19T14:36:25.333Z,25.62
2018-06-19T14:38:52.062Z,25.82
2018-06-19T14:41:18.698Z,25.67
2018-06-19T14:43:45.369Z,25.79
2018-06-19T14:46:12.047Z,25.89
2018-06-19T14:48:38.764Z,26.01
2018-06-19T14:51:05.394Z,25.92
2018-06-19T14:53:32.025Z,25.66
2018-06-19T14:55:58.669Z,25.41
2018-06-19T14:58:25.305Z,25.40
2018-06-19T15:00:51.973Z,25.22
2018-06-19T15:03:18.592Z,25.24
2018-06-19T15:05:45.374Z,25.31
2018-06-19T15:08:12.020Z,25.39
2018-06-19T15:10:38.727Z,25.38
2018-06-19T15:13:05.343Z,25.47
2018-06-19T15:15:31.980Z,25.64
2018-06-19T15:17:58.621Z,25.68
2018-06-19T15:20:25.310Z,25.78
2018-06-19T15:22:55.288Z,25.84
2018-06-19T15:25:21.964Z,25.91
2018-06-19T15:27:48.681Z,26.00
2018-06-19T15:30:15.337Z,25.92
2018-06-19T15:32:42.028Z,25.68
2018-06-19T15:35:08.680Z,25.55
2018-06-19T15:37:35.362Z,25.35
2018-06-19T15:40:02.003Z,25.53
2018-06-19T15:42:28.638Z,25.60
2018-06-19T15:44:55.277Z,25.62
2018-06-19T15:47:21.932Z,25.66
2018-06-19T15:49:48.613Z,25.71
2018-06-19T15:52:15.253Z,25.73
2018-06-19T15:54:41.964Z,25.78
2018-06-19T15:57:08.562Z,25.92
2018-06-19T15:59:35.215Z,25.94
2018-06-19T16:02:01.905Z,25.99
2018-06-19T16:04:28.539Z,26.01
2018-06-19T16:06:55.174Z,26.02
2018-06-19T16:09:21.838Z,25.63
2018-06-19T16:11:48.478Z,25.55
2018-06-19T16:14:15.191Z,25.47
2018-06-19T16:16:41.837Z,25.48
2018-06-19T16:19:08.513Z,25.59
2018-06-19T16:21:35.200Z,25.64
2018-06-19T16:24:01.840Z,25.78
2018-06-19T16:26:28.474Z,25.85
2018-06-19T16:28:55.123Z,25.91
2018-06-19T16:31:21.801Z,25.93
2018-06-19T16:33:48.452Z,25.81
2018-06-19T16:36:15.167Z,25.89
2018-06-19T16:38:41.766Z,25.96
2018-06-19T16:41:08.541Z,26.03
2018-06-19T16:43:35.189Z,26.00
2018-06-19T16:46:01.917Z,26.08
2018-06-19T16:48:28.561Z,26.03
2018-06-19T16:50:55.196Z,25.99
2018-06-19T16:53:21.840Z,26.08
2018-06-19T16:55:48.525Z,26.10
2018-06-19T16:58:15.162Z,26.11
2018-06-19T17:00:41.855Z,26.09
2018-06-19T17:03:08.507Z,26.11
2018-06-19T17:05:35.145Z,26.11
2018-06-19T17:08:01.789Z,26.13
2018-06-19T17:10:28.421Z,26.00
2018-06-19T17:12:55.065Z,25.98
2018-06-19T17:15:21.699Z,26.01
2018-06-19T17:17:48.384Z,26.06
2018-06-19T17:20:15.044Z,26.17
2018-06-19T17:22:41.693Z,26.18
2018-06-19T17:25:08.377Z,26.17
2018-06-19T17:27:35.091Z,26.13
2018-06-19T17:30:01.734Z,26.13
2018-06-19T17:32:28.392Z,25.61
2018-06-19T17:34:55.038Z,25.57
2018-06-19T17:37:21.712Z,25.44
2018-06-19T17:39:48.396Z,25.43
2018-06-19T17:42:15.080Z,25.40
2018-06-19T17:44:41.717Z,25.60
2018-06-19T17:47:08.364Z,25.76
2018-06-19T17:49:35.018Z,25.74
2018-06-19T17:52:01.694Z,25.79
2018-06-19T17:54:28.325Z,25.69
2018-06-19T17:56:55.012Z,25.70
2018-06-19T17:59:21.648Z,25.86
2018-06-19T18:01:48.330Z,25.84
2018-06-19T18:04:15.020Z,25.73
2018-06-19T18:06:41.699Z,25.70
2018-06-19T18:09:08.420Z,25.65
2018-06-19T18:11:35.117Z,25.63
2018-06-19T18:14:01.795Z,25.60
2018-06-19T18:16:28.426Z,25.65
2018-06-19T18:18:55.086Z,25.63
2018-06-19T18:21:21.791Z,25.63
2018-06-19T18:23:48.409Z,25.63
2018-06-19T18:26:15.089Z,25.63
2018-06-19T18:28:41.726Z,25.60
2018-06-19T18:31:08.354Z,25.60
2018-06-19T18:33:35.067Z,25.57
2018-06-19T18:36:01.676Z,25.56
2018-06-19T18:38:28.318Z,25.56
2018-06-19T18:40:54.969Z,25.57
2018-06-19T18:43:21.606Z,25.55
2018-06-19T18:45:48.277Z,25.52
2018-06-19T18:48:14.880Z,25.52
2018-06-19T18:50:41.558Z,25.50
2018-06-19T18:53:08.238Z,25.47
2018-06-19T18:55:34.865Z,25.50
2018-06-19T18:58:01.561Z,25.49
2018-06-19T19:00:28.192Z,25.47
2018-06-19T19:02:54.833Z,25.48
2018-06-19T19:05:21.498Z,25.47
2018-06-19T19:07:48.140Z,25.50
2018-06-19T19:10:14.826Z,25.45
2018-06-19T19:12:41.465Z,25.44
2018-06-19T19:15:08.242Z,25.43
2018-06-19T19:17:34.891Z,25.43
2018-06-19T19:20:01.538Z,25.40
2018-06-19T19:22:28.175Z,25.39
2018-06-19T19:24:54.821Z,25.39
2018-06-19T19:27:21.505Z,25.39
2018-06-19T19:29:48.136Z,25.39
2018-06-19T19:32:14.774Z,25.38
2018-06-19T19:34:41.419Z,25.35
2018-06-19T19:37:08.209Z,25.36
2018-06-19T19:39:34.813Z,25.33
2018-06-19T19:42:01.454Z,25.35
2018-06-19T19:44:28.137Z,25.33
2018-06-19T19:46:54.771Z,25.33
2018-06-19T19:49:21.414Z,25.31
2018-06-19T19:51:48.101Z,25.30
2018-06-19T19:54:14.742Z,25.30
2018-06-19T19:56:41.382Z,25.28
2018-06-19T19:59:08.052Z,25.28
2018-06-19T20:01:34.654Z,25.28
2018-06-19T20:04:01.336Z,25.29
2018-06-19T20:06:27.972Z,25.26
2018-06-19T20:08:54.618Z,25.24
2018-06-19T20:11:21.243Z,25.25
2018-06-19T20:13:47.885Z,25.24
2018-06-19T20:16:14.565Z,25.21
2018-06-19T20:18:41.197Z,25.23
2018-06-19T20:21:07.835Z,25.22
2018-06-19T20:23:34.516Z,25.21
2018-06-19T20:26:01.128Z,25.21
2018-06-19T20:28:27.770Z,25.21
2018-06-19T20:30:57.303Z,25.20
2018-06-19T20:33:24.014Z,25.19
2018-06-19T20:35:50.650Z,25.18
2018-06-19T20:38:17.287Z,25.16
2018-06-19T20:40:43.934Z,25.15
2018-06-19T20:43:10.575Z,25.14
2018-06-19T20:45:37.249Z,25.15
2018-06-19T20:48:03.853Z,25.13
2018-06-19T20:50:30.531Z,25.12
2018-06-19T20:52:57.129Z,25.12
2018-06-19T20:55:23.770Z,25.12
2018-06-19T20:57:50.445Z,25.11
2018-06-19T21:00:17.080Z,25.11
2018-06-19T21:02:43.722Z,25.08
2018-06-19T21:05:10.370Z,25.08
2018-06-19T21:07:37.042Z,25.06
2018-06-19T21:10:03.658Z,25.06
2018-06-19T21:12:30.299Z,25.06
2018-06-19T21:14:56.938Z,25.05
2018-06-19T21:17:23.612Z,25.05
2018-06-19T21:19:50.279Z,25.04
2018-06-19T21:22:16.952Z,25.00
2018-06-19T21:24:43.587Z,25.03
2018-06-19T21:27:10.214Z,25.00
2018-06-19T21:29:36.862Z,25.00
2018-06-19T21:32:03.501Z,24.99
2018-06-19T21:34:30.181Z,24.96
2018-06-19T21:36:56.821Z,24.96
2018-06-19T21:39:23.463Z,24.96
2018-06-19T21:41:50.109Z,24.95
2018-06-19T21:44:16.743Z,24.95
2018-06-19T21:46:43.386Z,24.94
2018-06-19T21:49:10.067Z,24.94
2018-06-19T21:51:36.711Z,24.92
2018-06-19T21:54:03.339Z,24.91
2018-06-19T21:56:30.042Z,24.90
2018-06-19T21:58:56.623Z,24.89
2018-06-19T22:01:23.266Z,24.87
2018-06-19T22:03:49.905Z,24.88
2018-06-19T22:06:16.553Z,24.89
2018-06-19T22:08:43.230Z,24.87
2018-06-19T22:11:09.865Z,24.85
2018-06-19T22:13:36.603Z,24.83
2018-06-19T22:16:03.207Z,24.83
2018-06-19T22:18:29.853Z,24.83
2018-06-19T22:20:56.542Z,24.81
2018-06-19T22:23:23.226Z,24.79
2018-06-19T22:25:49.857Z,24.80
2018-06-19T22:28:16.536Z,24.81
2018-06-19T22:30:43.173Z,24.76
2018-06-19T22:33:09.889Z,24.78
2018-06-19T22:35:36.539Z,24.77
2018-06-19T22:38:03.180Z,24.77
2018-06-19T22:40:29.860Z,24.75
2018-06-19T22:42:56.587Z,24.73
2018-06-19T22:45:23.174Z,24.73
2018-06-19T22:47:49.849Z,24.73
2018-06-19T22:50:16.539Z,24.72
2018-06-19T22:52:43.241Z,24.70
2018-06-19T22:55:09.857Z,24.68
2018-06-19T22:57:36.504Z,24.67
2018-06-19T23:00:03.156Z,24.67
2018-06-19T23:02:29.792Z,24.67
2018-06-19T23:04:56.469Z,24.66
2018-06-19T23:07:23.106Z,24.65
2018-06-19T23:09:49.807Z,24.64
2018-06-19T23:12:16.444Z,24.62
2018-06-19T23:14:43.125Z,24.62
2018-06-19T23:17:09.808Z,24.62
2018-06-19T23:19:36.448Z,24.61
2018-06-19T23:22:03.093Z,24.60
2018-06-19T23:24:29.736Z,24.57
2018-06-19T23:26:56.405Z,24.57
2018-06-19T23:29:23.011Z,24.57
2018-06-19T23:31:49.695Z,24.58
2018-06-19T23:34:16.329Z,24.56
2018-06-19T23:36:42.977Z,24.53
2018-06-19T23:39:09.630Z,24.54
2018-06-19T23:41:36.317Z,24.54
2018-06-19T23:44:02.962Z,24.52
2018-06-19T23:46:29.600Z,24.50
2018-06-19T23:48:56.246Z,24.48
2018-06-19T23:51:22.925Z,24.48
2018-06-19T23:53:49.580Z,24.46
2018-06-19T23:56:16.253Z,24.45
2018-06-19T23:58:42.890Z,24.44
